sensor_id;sensor_type;location;lat;lon;timestamp;P1;durP1;ratioP1;P2;durP2;ratioP2
50769;SDS011;36740;48.698;11.472;2023-08-01T00:02:12;5.72;;;3.33;;
50769;SDS011;36740;48.698;11.472;2023-08-01T00:11:49;9.82;;;3.75;;
50769;SDS011;36740;48.698;11.472;2023-08-01T00:14:45;10.05;;;3.75;;
50769;SDS011;36740;48.698;11.472;2023-08-01T00:21:32;7.22;;;3.95;;
50769;SDS011;36740;48.698;11.472;2023-08-01T00:45:25;6.18;;;3.47;;
50769;SDS011;36740;48.698;11.472;2023-08-01T00:58:51;3.42;;;2.72;;
50769;SDS011;36740;48.698;11.472;2023-08-01T01:01:46;3.95;;;2.50;;
50769;SDS011;36740;48.698;11.472;2023-08-01T01:04:37;5.97;;;2.85;;
50769;SDS011;36740;48.698;11.472;2023-08-01T01:07:26;6.38;;;3.08;;
50769;SDS011;36740;48.698;11.472;2023-08-01T01:10:31;6.38;;;3.25;;
50769;SDS011;36740;48.698;11.472;2023-08-01T01:17:03;10.77;;;3.45;;
50769;SDS011;36740;48.698;11.472;2023-08-01T01:23:20;8.55;;;3.67;;
50769;SDS011;36740;48.698;11.472;2023-08-01T01:29:42;3.88;;;2.80;;
50769;SDS011;36740;48.698;11.472;2023-08-01T01:45:40;6.60;;;3.33;;
50769;SDS011;36740;48.698;11.472;2023-08-01T01:49:07;5.95;;;3.45;;
50769;SDS011;36740;48.698;11.472;2023-08-01T01:52:13;6.68;;;3.25;;
50769;SDS011;36740;48.698;11.472;2023-08-01T01:58:35;5.60;;;3.88;;
50769;SDS011;36740;48.698;11.472;2023-08-01T02:01:47;4.78;;;3.15;;
50769;SDS011;36740;48.698;11.472;2023-08-01T02:05:04;6.20;;;3.38;;
50769;SDS011;36740;48.698;11.472;2023-08-01T02:12:06;3.70;;;2.88;;
50769;SDS011;36740;48.698;11.472;2023-08-01T02:15:39;6.38;;;2.83;;
50769;SDS011;36740;48.698;11.472;2023-08-01T02:25:30;4.50;;;3.25;;
50769;SDS011;36740;48.698;11.472;2023-08-01T02:28:37;5.30;;;2.63;;
50769;SDS011;36740;48.698;11.472;2023-08-01T02:35:01;7.18;;;3.58;;
50769;SDS011;36740;48.698;11.472;2023-08-01T02:41:40;7.60;;;3.40;;
50769;SDS011;36740;48.698;11.472;2023-08-01T02:48:29;3.78;;;2.65;;
50769;SDS011;36740;48.698;11.472;2023-08-01T02:55:08;6.20;;;3.03;;
50769;SDS011;36740;48.698;11.472;2023-08-01T02:58:28;5.18;;;2.70;;
50769;SDS011;36740;48.698;11.472;2023-08-01T03:05:02;6.90;;;3.35;;
50769;SDS011;36740;48.698;11.472;2023-08-01T03:08:01;8.02;;;3.15;;
50769;SDS011;36740;48.698;11.472;2023-08-01T03:18:20;5.28;;;2.85;;
50769;SDS011;36740;48.698;11.472;2023-08-01T03:24:34;9.00;;;3.70;;
50769;SDS011;36740;48.698;11.472;2023-08-01T03:34:38;5.38;;;2.67;;
50769;SDS011;36740;48.698;11.472;2023-08-01T03:37:45;6.13;;;3.47;;
50769;SDS011;36740;48.698;11.472;2023-08-01T03:47:24;6.85;;;3.13;;
50769;SDS011;36740;48.698;11.472;2023-08-01T03:50:38;5.18;;;3.28;;
50769;SDS011;36740;48.698;11.472;2023-08-01T04:00:42;6.88;;;4.10;;
50769;SDS011;36740;48.698;11.472;2023-08-01T04:07:20;10.40;;;4.50;;
50769;SDS011;36740;48.698;11.472;2023-08-01T04:13:55;8.05;;;3.38;;
50769;SDS011;36740;48.698;11.472;2023-08-01T04:23:13;8.05;;;4.88;;
50769;SDS011;36740;48.698;11.472;2023-08-01T04:26:30;6.15;;;3.08;;
50769;SDS011;36740;48.698;11.472;2023-08-01T04:29:15;6.70;;;3.92;;
50769;SDS011;36740;48.698;11.472;2023-08-01T04:32:06;7.93;;;3.85;;
50769;SDS011;36740;48.698;11.472;2023-08-01T04:34:55;7.53;;;3.33;;
50769;SDS011;36740;48.698;11.472;2023-08-01T04:37:50;6.90;;;4.20;;
50769;SDS011;36740;48.698;11.472;2023-08-01T04:47:29;8.40;;;3.17;;
50769;SDS011;36740;48.698;11.472;2023-08-01T04:50:24;6.03;;;3.28;;
50769;SDS011;36740;48.698;11.472;2023-08-01T05:00:05;10.70;;;2.83;;
50769;SDS011;36740;48.698;11.472;2023-08-01T05:02:57;7.72;;;3.63;;
50769;SDS011;36740;48.698;11.472;2023-08-01T05:05:52;5.20;;;2.80;;
50769;SDS011;36740;48.698;11.472;2023-08-01T05:08:54;6.00;;;3.08;;
50769;SDS011;36740;48.698;11.472;2023-08-01T05:22:18;7.30;;;3.97;;
50769;SDS011;36740;48.698;11.472;2023-08-01T05:25:29;4.25;;;2.75;;
50769;SDS011;36740;48.698;11.472;2023-08-01T05:28:47;6.78;;;3.55;;
50769;SDS011;36740;48.698;11.472;2023-08-01T05:31:36;6.13;;;2.88;;
50769;SDS011;36740;48.698;11.472;2023-08-01T05:35:07;7.45;;;3.75;;
50769;SDS011;36740;48.698;11.472;2023-08-01T05:44:27;5.97;;;3.72;;
50769;SDS011;36740;48.698;11.472;2023-08-01T05:47:54;10.57;;;4.25;;
50769;SDS011;36740;48.698;11.472;2023-08-01T05:50:56;8.73;;;5.07;;
50769;SDS011;36740;48.698;11.472;2023-08-01T05:53:46;4.97;;;3.88;;
50769;SDS011;36740;48.698;11.472;2023-08-01T05:59:47;6.43;;;3.40;;
50769;SDS011;36740;48.698;11.472;2023-08-01T06:02:35;6.72;;;3.67;;
50769;SDS011;36740;48.698;11.472;2023-08-01T06:05:32;7.40;;;2.80;;
50769;SDS011;36740;48.698;11.472;2023-08-01T06:08:26;6.00;;;2.90;;
50769;SDS011;36740;48.698;11.472;2023-08-01T06:11:17;6.07;;;4.03;;
50769;SDS011;36740;48.698;11.472;2023-08-01T06:14:05;4.60;;;2.40;;
50769;SDS011;36740;48.698;11.472;2023-08-01T06:16:58;8.60;;;3.70;;
50769;SDS011;36740;48.698;11.472;2023-08-01T06:20:03;10.63;;;3.70;;
50769;SDS011;36740;48.698;11.472;2023-08-01T06:22:51;4.32;;;2.92;;
50769;SDS011;36740;48.698;11.472;2023-08-01T06:25:37;8.43;;;3.42;;
50769;SDS011;36740;48.698;11.472;2023-08-01T06:28:38;9.27;;;3.45;;
50769;SDS011;36740;48.698;11.472;2023-08-01T06:38:37;7.43;;;4.00;;
50769;SDS011;36740;48.698;11.472;2023-08-01T06:41:29;6.18;;;3.97;;
50769;SDS011;36740;48.698;11.472;2023-08-01T06:44:27;6.45;;;3.58;;
50769;SDS011;36740;48.698;11.472;2023-08-01T06:47:15;7.60;;;3.33;;
50769;SDS011;36740;48.698;11.472;2023-08-01T06:50:04;13.02;;;4.45;;
50769;SDS011;36740;48.698;11.472;2023-08-01T06:59:52;12.40;;;4.75;;
50769;SDS011;36740;48.698;11.472;2023-08-01T07:02:50;11.07;;;3.92;;
50769;SDS011;36740;48.698;11.472;2023-08-01T07:05:58;5.90;;;3.40;;
50769;SDS011;36740;48.698;11.472;2023-08-01T07:15:59;5.80;;;3.08;;
50769;SDS011;36740;48.698;11.472;2023-08-01T07:19:04;7.15;;;3.85;;
50769;SDS011;36740;48.698;11.472;2023-08-01T07:32:41;4.65;;;3.25;;
50769;SDS011;36740;48.698;11.472;2023-08-01T09:50:24;4.70;;;3.13;;
50769;SDS011;36740;48.698;11.472;2023-08-01T09:57:21;9.35;;;4.22;;
50769;SDS011;36740;48.698;11.472;2023-08-01T10:03:31;9.95;;;3.42;;
50769;SDS011;36740;48.698;11.472;2023-08-01T10:06:30;14.70;;;3.83;;
50769;SDS011;36740;48.698;11.472;2023-08-01T10:09:29;12.30;;;3.97;;
50769;SDS011;36740;48.698;11.472;2023-08-01T10:12:53;10.50;;;4.05;;
50769;SDS011;36740;48.698;11.472;2023-08-01T10:16:10;7.47;;;3.70;;
50769;SDS011;36740;48.698;11.472;2023-08-01T10:19:16;7.90;;;4.38;;
50769;SDS011;36740;48.698;11.472;2023-08-01T10:39:38;6.78;;;3.63;;
50769;SDS011;36740;48.698;11.472;2023-08-01T10:53:01;7.82;;;4.75;;
50769;SDS011;36740;48.698;11.472;2023-08-01T11:10:21;5.38;;;3.10;;
50769;SDS011;36740;48.698;11.472;2023-08-01T11:13:11;9.90;;;4.82;;
50769;SDS011;36740;48.698;11.472;2023-08-01T11:15:57;7.45;;;4.30;;
50769;SDS011;36740;48.698;11.472;2023-08-01T11:18:44;5.72;;;3.80;;
50769;SDS011;36740;48.698;11.472;2023-08-01T11:21:37;8.10;;;3.10;;
50769;SDS011;36740;48.698;11.472;2023-08-01T11:24:23;5.60;;;3.20;;
50769;SDS011;36740;48.698;11.472;2023-08-01T11:27:09;6.88;;;4.28;;
50769;SDS011;36740;48.698;11.472;2023-08-01T11:29:55;6.78;;;3.38;;
50769;SDS011;36740;48.698;11.472;2023-08-01T11:32:41;4.40;;;2.58;;
50769;SDS011;36740;48.698;11.472;2023-08-01T11:35:27;6.18;;;2.60;;
50769;SDS011;36740;48.698;11.472;2023-08-01T11:38:12;6.32;;;2.90;;
50769;SDS011;36740;48.698;11.472;2023-08-01T11:40:58;4.93;;;2.25;;
50769;SDS011;36740;48.698;11.472;2023-08-01T11:43:44;5.45;;;2.40;;
50769;SDS011;36740;48.698;11.472;2023-08-01T11:46:30;8.63;;;4.43;;
50769;SDS011;36740;48.698;11.472;2023-08-01T11:49:16;6.00;;;4.03;;
50769;SDS011;36740;48.698;11.472;2023-08-01T11:52:03;6.07;;;4.15;;
50769;SDS011;36740;48.698;11.472;2023-08-01T11:54:48;9.65;;;3.22;;
50769;SDS011;36740;48.698;11.472;2023-08-01T11:57:34;4.93;;;2.85;;
50769;SDS011;36740;48.698;11.472;2023-08-01T12:00:27;3.75;;;2.30;;
50769;SDS011;36740;48.698;11.472;2023-08-01T12:03:13;3.90;;;2.40;;
50769;SDS011;36740;48.698;11.472;2023-08-01T12:06:02;6.45;;;2.78;;
50769;SDS011;36740;48.698;11.472;2023-08-01T12:08:50;3.53;;;2.22;;
50769;SDS011;36740;48.698;11.472;2023-08-01T12:11:36;6.50;;;2.83;;
50769;SDS011;36740;48.698;11.472;2023-08-01T12:14:22;3.70;;;2.40;;
50769;SDS011;36740;48.698;11.472;2023-08-01T12:17:08;3.85;;;2.33;;
50769;SDS011;36740;48.698;11.472;2023-08-01T12:19:53;3.92;;;1.77;;
50769;SDS011;36740;48.698;11.472;2023-08-01T12:22:39;5.57;;;3.05;;
50769;SDS011;36740;48.698;11.472;2023-08-01T12:25:25;2.38;;;2.13;;
50769;SDS011;36740;48.698;11.472;2023-08-01T12:28:10;8.65;;;3.17;;
50769;SDS011;36740;48.698;11.472;2023-08-01T12:30:56;7.75;;;4.32;;
50769;SDS011;36740;48.698;11.472;2023-08-01T12:33:44;5.15;;;2.72;;
50769;SDS011;36740;48.698;11.472;2023-08-01T12:36:29;3.45;;;2.53;;
50769;SDS011;36740;48.698;11.472;2023-08-01T12:39:15;4.00;;;2.78;;
50769;SDS011;36740;48.698;11.472;2023-08-01T12:42:01;5.82;;;2.97;;
50769;SDS011;36740;48.698;11.472;2023-08-01T12:44:46;4.18;;;1.63;;
50769;SDS011;36740;48.698;11.472;2023-08-01T12:47:32;7.15;;;3.20;;
50769;SDS011;36740;48.698;11.472;2023-08-01T12:50:18;3.65;;;2.25;;
50769;SDS011;36740;48.698;11.472;2023-08-01T12:53:03;3.13;;;1.83;;
50769;SDS011;36740;48.698;11.472;2023-08-01T12:55:50;2.90;;;2.00;;
50769;SDS011;36740;48.698;11.472;2023-08-01T12:58:35;5.93;;;1.90;;
50769;SDS011;36740;48.698;11.472;2023-08-01T13:01:21;3.10;;;1.65;;
50769;SDS011;36740;48.698;11.472;2023-08-01T13:04:07;5.85;;;1.42;;
50769;SDS011;36740;48.698;11.472;2023-08-01T13:06:52;3.75;;;1.90;;
50769;SDS011;36740;48.698;11.472;2023-08-01T13:09:38;3.42;;;1.45;;
50769;SDS011;36740;48.698;11.472;2023-08-01T13:12:24;3.47;;;1.35;;
50769;SDS011;36740;48.698;11.472;2023-08-01T13:15:09;3.88;;;1.73;;
50769;SDS011;36740;48.698;11.472;2023-08-01T13:17:55;3.97;;;1.83;;
50769;SDS011;36740;48.698;11.472;2023-08-01T13:20:41;1.63;;;1.50;;
50769;SDS011;36740;48.698;11.472;2023-08-01T13:23:26;2.30;;;1.70;;
50769;SDS011;36740;48.698;11.472;2023-08-01T13:26:12;2.92;;;1.25;;
50769;SDS011;36740;48.698;11.472;2023-08-01T13:28:58;1.90;;;1.48;;
50769;SDS011;36740;48.698;11.472;2023-08-01T13:31:44;2.05;;;1.15;;
50769;SDS011;36740;48.698;11.472;2023-08-01T13:34:29;4.57;;;1.20;;
50769;SDS011;36740;48.698;11.472;2023-08-01T13:37:15;3.83;;;1.40;;
50769;SDS011;36740;48.698;11.472;2023-08-01T13:40:01;14.90;;;1.30;;
50769;SDS011;36740;48.698;11.472;2023-08-01T13:42:46;2.83;;;1.52;;
50769;SDS011;36740;48.698;11.472;2023-08-01T13:45:32;2.90;;;1.42;;
50769;SDS011;36740;48.698;11.472;2023-08-01T13:48:18;1.85;;;1.33;;
50769;SDS011;36740;48.698;11.472;2023-08-01T13:51:04;2.33;;;1.35;;
50769;SDS011;36740;48.698;11.472;2023-08-01T13:53:49;2.90;;;1.48;;
50769;SDS011;36740;48.698;11.472;2023-08-01T13:56:38;1.90;;;1.17;;
50769;SDS011;36740;48.698;11.472;2023-08-01T13:59:37;4.25;;;1.83;;
50769;SDS011;36740;48.698;11.472;2023-08-01T14:02:35;1.10;;;1.00;;
50769;SDS011;36740;48.698;11.472;2023-08-01T14:06:05;2.58;;;1.52;;
50769;SDS011;36740;48.698;11.472;2023-08-01T14:08:56;1.67;;;1.30;;
50769;SDS011;36740;48.698;11.472;2023-08-01T14:11:45;1.75;;;1.08;;
50769;SDS011;36740;48.698;11.472;2023-08-01T14:14:33;2.13;;;1.30;;
50769;SDS011;36740;48.698;11.472;2023-08-01T14:20:58;2.08;;;1.30;;
50769;SDS011;36740;48.698;11.472;2023-08-01T14:24:13;1.85;;;1.00;;
50769;SDS011;36740;48.698;11.472;2023-08-01T14:30:17;2.13;;;1.35;;
50769;SDS011;36740;48.698;11.472;2023-08-01T14:33:22;2.10;;;0.80;;
50769;SDS011;36740;48.698;11.472;2023-08-01T14:36:16;1.92;;;1.23;;
50769;SDS011;36740;48.698;11.472;2023-08-01T14:39:35;4.35;;;1.58;;
50769;SDS011;36740;48.698;11.472;2023-08-01T14:46:04;2.33;;;1.33;;
50769;SDS011;36740;48.698;11.472;2023-08-01T14:56:12;6.22;;;1.48;;
50769;SDS011;36740;48.698;11.472;2023-08-01T15:16:16;1.48;;;0.95;;
50769;SDS011;36740;48.698;11.472;2023-08-01T15:22:40;2.10;;;1.67;;
50769;SDS011;36740;48.698;11.472;2023-08-01T15:31:22;1.42;;;0.90;;
50769;SDS011;36740;48.698;11.472;2023-08-01T15:34:11;4.97;;;2.33;;
50769;SDS011;36740;48.698;11.472;2023-08-01T15:37:00;1.00;;;0.90;;
50769;SDS011;36740;48.698;11.472;2023-08-01T15:40:01;1.30;;;0.90;;
50769;SDS011;36740;48.698;11.472;2023-08-01T15:42:55;1.48;;;1.23;;
50769;SDS011;36740;48.698;11.472;2023-08-01T15:49:18;0.93;;;0.93;;
50769;SDS011;36740;48.698;11.472;2023-08-01T15:55:44;1.20;;;1.00;;
50769;SDS011;36740;48.698;11.472;2023-08-01T15:58:48;6.78;;;1.42;;
50769;SDS011;36740;48.698;11.472;2023-08-01T16:01:39;7.18;;;2.28;;
50769;SDS011;36740;48.698;11.472;2023-08-01T16:10:58;3.15;;;1.50;;
50769;SDS011;36740;48.698;11.472;2023-08-01T16:16:55;4.05;;;1.77;;
50769;SDS011;36740;48.698;11.472;2023-08-01T16:23:01;5.82;;;1.10;;
50769;SDS011;36740;48.698;11.472;2023-08-01T16:25:52;5.63;;;1.30;;
50769;SDS011;36740;48.698;11.472;2023-08-01T16:32:31;0.77;;;0.77;;
50769;SDS011;36740;48.698;11.472;2023-08-01T16:35:54;1.70;;;1.20;;
50769;SDS011;36740;48.698;11.472;2023-08-01T16:39:00;0.80;;;0.80;;
50769;SDS011;36740;48.698;11.472;2023-08-01T16:45:12;1.35;;;1.25;;
50769;SDS011;36740;48.698;11.472;2023-08-01T16:51:25;2.03;;;1.00;;
50769;SDS011;36740;48.698;11.472;2023-08-01T16:58:16;1.65;;;1.55;;
50769;SDS011;36740;48.698;11.472;2023-08-01T17:15:04;7.13;;;2.20;;
50769;SDS011;36740;48.698;11.472;2023-08-01T17:21:26;1.40;;;1.17;;
50769;SDS011;36740;48.698;11.472;2023-08-01T17:27:51;1.02;;;0.85;;
50769;SDS011;36740;48.698;11.472;2023-08-01T17:44:43;2.00;;;1.30;;
50769;SDS011;36740;48.698;11.472;2023-08-01T17:47:48;1.33;;;0.95;;
50769;SDS011;36740;48.698;11.472;2023-08-01T17:50:54;1.48;;;0.80;;
50769;SDS011;36740;48.698;11.472;2023-08-01T17:53:58;1.10;;;1.00;;
50769;SDS011;36740;48.698;11.472;2023-08-01T17:56:49;2.42;;;1.23;;
50769;SDS011;36740;48.698;11.472;2023-08-01T18:02:44;2.25;;;1.67;;
50769;SDS011;36740;48.698;11.472;2023-08-01T18:05:45;5.45;;;2.42;;
50769;SDS011;36740;48.698;11.472;2023-08-01T18:08:32;2.35;;;1.30;;
50769;SDS011;36740;48.698;11.472;2023-08-01T18:11:32;1.88;;;1.13;;
50769;SDS011;36740;48.698;11.472;2023-08-01T18:14:41;2.90;;;1.27;;
50769;SDS011;36740;48.698;11.472;2023-08-01T18:17:32;0.80;;;0.80;;
50769;SDS011;36740;48.698;11.472;2023-08-01T18:20:20;1.77;;;1.17;;
50769;SDS011;36740;48.698;11.472;2023-08-01T18:23:17;2.83;;;0.90;;
50769;SDS011;36740;48.698;11.472;2023-08-01T18:29:25;1.00;;;1.00;;
50769;SDS011;36740;48.698;11.472;2023-08-01T18:32:14;1.67;;;1.48;;
50769;SDS011;36740;48.698;11.472;2023-08-01T18:35:06;2.65;;;1.63;;
50769;SDS011;36740;48.698;11.472;2023-08-01T18:37:55;2.83;;;1.15;;
50769;SDS011;36740;48.698;11.472;2023-08-01T18:40:41;3.10;;;1.77;;
50769;SDS011;36740;48.698;11.472;2023-08-01T18:43:38;4.82;;;2.15;;
50769;SDS011;36740;48.698;11.472;2023-08-01T18:46:27;5.88;;;1.70;;
50769;SDS011;36740;48.698;11.472;2023-08-01T18:49:38;1.27;;;0.90;;
50769;SDS011;36740;48.698;11.472;2023-08-01T18:52:24;3.60;;;1.90;;
50769;SDS011;36740;48.698;11.472;2023-08-01T18:55:10;1.90;;;1.30;;
50769;SDS011;36740;48.698;11.472;2023-08-01T18:57:55;1.85;;;1.20;;
50769;SDS011;36740;48.698;11.472;2023-08-01T19:00:44;2.58;;;1.27;;
50769;SDS011;36740;48.698;11.472;2023-08-01T19:03:30;2.05;;;1.58;;
50769;SDS011;36740;48.698;11.472;2023-08-01T19:06:16;2.28;;;1.60;;
50769;SDS011;36740;48.698;11.472;2023-08-01T19:09:04;2.25;;;1.42;;
50769;SDS011;36740;48.698;11.472;2023-08-01T19:11:50;2.58;;;1.38;;
50769;SDS011;36740;48.698;11.472;2023-08-01T19:14:36;2.25;;;1.35;;
50769;SDS011;36740;48.698;11.472;2023-08-01T19:17:21;3.72;;;1.83;;
50769;SDS011;36740;48.698;11.472;2023-08-01T19:20:10;2.67;;;1.83;;
50769;SDS011;36740;48.698;11.472;2023-08-01T19:22:56;3.17;;;1.63;;
50769;SDS011;36740;48.698;11.472;2023-08-01T19:25:41;0.93;;;0.93;;
50769;SDS011;36740;48.698;11.472;2023-08-01T19:28:30;4.40;;;2.17;;
50769;SDS011;36740;48.698;11.472;2023-08-01T19:31:16;1.92;;;1.30;;
50769;SDS011;36740;48.698;11.472;2023-08-01T19:34:01;2.13;;;1.20;;
50769;SDS011;36740;48.698;11.472;2023-08-01T19:36:49;2.92;;;1.55;;
50769;SDS011;36740;48.698;11.472;2023-08-01T19:39:36;1.95;;;1.35;;
50769;SDS011;36740;48.698;11.472;2023-08-01T19:42:22;2.88;;;1.60;;
50769;SDS011;36740;48.698;11.472;2023-08-01T19:45:08;2.83;;;1.25;;
50769;SDS011;36740;48.698;11.472;2023-08-01T19:47:54;1.42;;;1.20;;
50769;SDS011;36740;48.698;11.472;2023-08-01T19:50:41;2.63;;;1.38;;
50769;SDS011;36740;48.698;11.472;2023-08-01T19:53:26;1.33;;;1.15;;
50769;SDS011;36740;48.698;11.472;2023-08-01T19:56:12;3.50;;;2.15;;
50769;SDS011;36740;48.698;11.472;2023-08-01T19:58:58;3.20;;;1.92;;
50769;SDS011;36740;48.698;11.472;2023-08-01T20:01:43;1.85;;;1.52;;
50769;SDS011;36740;48.698;11.472;2023-08-01T20:04:30;2.58;;;1.30;;
50769;SDS011;36740;48.698;11.472;2023-08-01T20:07:16;1.98;;;1.38;;
50769;SDS011;36740;48.698;11.472;2023-08-01T20:10:02;2.78;;;1.67;;
50769;SDS011;36740;48.698;11.472;2023-08-01T20:12:48;3.17;;;1.75;;
50769;SDS011;36740;48.698;11.472;2023-08-01T20:15:34;1.83;;;1.30;;
50769;SDS011;36740;48.698;11.472;2023-08-01T20:18:20;2.25;;;1.23;;
50769;SDS011;36740;48.698;11.472;2023-08-01T20:21:06;2.17;;;1.45;;
50769;SDS011;36740;48.698;11.472;2023-08-01T20:23:51;2.15;;;1.25;;
50769;SDS011;36740;48.698;11.472;2023-08-01T20:26:37;1.92;;;0.88;;
50769;SDS011;36740;48.698;11.472;2023-08-01T20:29:23;2.88;;;1.60;;
50769;SDS011;36740;48.698;11.472;2023-08-01T20:32:08;3.60;;;2.03;;
50769;SDS011;36740;48.698;11.472;2023-08-01T20:34:54;1.70;;;1.05;;
50769;SDS011;36740;48.698;11.472;2023-08-01T20:37:39;1.05;;;1.05;;
50769;SDS011;36740;48.698;11.472;2023-08-01T20:40:25;1.30;;;1.20;;
50769;SDS011;36740;48.698;11.472;2023-08-01T20:43:11;0.90;;;0.90;;
50769;SDS011;36740;48.698;11.472;2023-08-01T20:45:57;3.63;;;1.08;;
50769;SDS011;36740;48.698;11.472;2023-08-01T20:48:42;1.45;;;1.30;;
50769;SDS011;36740;48.698;11.472;2023-08-01T20:51:28;1.98;;;1.20;;
50769;SDS011;36740;48.698;11.472;2023-08-01T20:54:14;1.85;;;1.30;;
50769;SDS011;36740;48.698;11.472;2023-08-01T20:56:59;2.90;;;1.50;;
50769;SDS011;36740;48.698;11.472;2023-08-01T20:59:45;1.38;;;1.15;;
50769;SDS011;36740;48.698;11.472;2023-08-01T21:02:31;1.55;;;1.05;;
50769;SDS011;36740;48.698;11.472;2023-08-01T21:05:16;1.73;;;1.48;;
50769;SDS011;36740;48.698;11.472;2023-08-01T21:08:03;1.02;;;0.88;;
50769;SDS011;36740;48.698;11.472;2023-08-01T21:10:49;2.45;;;1.98;;
50769;SDS011;36740;48.698;11.472;2023-08-01T21:13:35;1.77;;;1.30;;
50769;SDS011;36740;48.698;11.472;2023-08-01T21:16:21;1.90;;;1.15;;
50769;SDS011;36740;48.698;11.472;2023-08-01T21:19:07;2.63;;;1.65;;
50769;SDS011;36740;48.698;11.472;2023-08-01T21:21:53;4.00;;;1.63;;
50769;SDS011;36740;48.698;11.472;2023-08-01T21:24:38;2.15;;;1.23;;
50769;SDS011;36740;48.698;11.472;2023-08-01T21:27:24;2.70;;;1.75;;
50769;SDS011;36740;48.698;11.472;2023-08-01T21:30:10;1.23;;;1.13;;
50769;SDS011;36740;48.698;11.472;2023-08-01T21:32:56;1.77;;;1.15;;
50769;SDS011;36740;48.698;11.472;2023-08-01T21:35:41;1.73;;;1.17;;
50769;SDS011;36740;48.698;11.472;2023-08-01T21:38:27;6.95;;;1.20;;
50769;SDS011;36740;48.698;11.472;2023-08-01T21:41:13;6.55;;;1.20;;
50769;SDS011;36740;48.698;11.472;2023-08-01T21:43:59;2.13;;;1.55;;
50769;SDS011;36740;48.698;11.472;2023-08-01T21:46:45;7.28;;;1.88;;
50769;SDS011;36740;48.698;11.472;2023-08-01T21:49:30;2.83;;;1.67;;
50769;SDS011;36740;48.698;11.472;2023-08-01T21:52:16;1.42;;;1.15;;
50769;SDS011;36740;48.698;11.472;2023-08-01T21:55:02;2.10;;;1.13;;
50769;SDS011;36740;48.698;11.472;2023-08-01T21:57:47;2.30;;;1.65;;
50769;SDS011;36740;48.698;11.472;2023-08-01T22:00:33;1.83;;;1.08;;
50769;SDS011;36740;48.698;11.472;2023-08-01T22:03:19;1.27;;;1.10;;
50769;SDS011;36740;48.698;11.472;2023-08-01T22:06:04;2.83;;;1.23;;
50769;SDS011;36740;48.698;11.472;2023-08-01T22:08:51;4.95;;;2.08;;
50769;SDS011;36740;48.698;11.472;2023-08-01T22:11:36;1.85;;;1.17;;
50769;SDS011;36740;48.698;11.472;2023-08-01T22:14:22;1.38;;;1.27;;
50769;SDS011;36740;48.698;11.472;2023-08-01T22:17:08;1.67;;;1.02;;
50769;SDS011;36740;48.698;11.472;2023-08-01T22:19:54;4.93;;;1.67;;
50769;SDS011;36740;48.698;11.472;2023-08-01T22:22:40;2.28;;;1.52;;
50769;SDS011;36740;48.698;11.472;2023-08-01T22:25:25;5.55;;;1.27;;
50769;SDS011;36740;48.698;11.472;2023-08-01T22:28:11;1.02;;;0.98;;
50769;SDS011;36740;48.698;11.472;2023-08-01T22:30:57;1.77;;;1.30;;
50769;SDS011;36740;48.698;11.472;2023-08-01T22:33:43;2.17;;;1.45;;
50769;SDS011;36740;48.698;11.472;2023-08-01T22:36:29;2.15;;;1.67;;
50769;SDS011;36740;48.698;11.472;2023-08-01T22:39:14;1.35;;;1.25;;
50769;SDS011;36740;48.698;11.472;2023-08-01T22:42:00;6.53;;;2.25;;
50769;SDS011;36740;48.698;11.472;2023-08-01T22:44:46;4.97;;;1.60;;
50769;SDS011;36740;48.698;11.472;2023-08-01T22:47:32;4.15;;;1.55;;
50769;SDS011;36740;48.698;11.472;2023-08-01T22:50:18;7.50;;;1.98;;
50769;SDS011;36740;48.698;11.472;2023-08-01T22:53:03;2.38;;;1.45;;
50769;SDS011;36740;48.698;11.472;2023-08-01T22:55:50;2.67;;;1.60;;
50769;SDS011;36740;48.698;11.472;2023-08-01T22:58:35;3.55;;;1.55;;
50769;SDS011;36740;48.698;11.472;2023-08-01T23:01:21;3.20;;;1.27;;
50769;SDS011;36740;48.698;11.472;2023-08-01T23:04:08;3.88;;;2.30;;
50769;SDS011;36740;48.698;11.472;2023-08-01T23:06:54;1.80;;;1.55;;
50769;SDS011;36740;48.698;11.472;2023-08-01T23:09:39;1.38;;;1.27;;
50769;SDS011;36740;48.698;11.472;2023-08-01T23:12:25;3.67;;;1.75;;
50769;SDS011;36740;48.698;11.472;2023-08-01T23:15:11;2.15;;;1.20;;
50769;SDS011;36740;48.698;11.472;2023-08-01T23:17:57;2.35;;;1.30;;
50769;SDS011;36740;48.698;11.472;2023-08-01T23:20:43;3.08;;;1.27;;
50769;SDS011;36740;48.698;11.472;2023-08-01T23:23:28;3.85;;;2.10;;
50769;SDS011;36740;48.698;11.472;2023-08-01T23:26:15;6.35;;;1.60;;
50769;SDS011;36740;48.698;11.472;2023-08-01T23:29:00;4.50;;;2.08;;
50769;SDS011;36740;48.698;11.472;2023-08-01T23:31:46;3.83;;;1.73;;
50769;SDS011;36740;48.698;11.472;2023-08-01T23:34:32;2.47;;;1.48;;
50769;SDS011;36740;48.698;11.472;2023-08-01T23:37:17;2.22;;;1.40;;
50769;SDS011;36740;48.698;11.472;2023-08-01T23:40:03;2.97;;;1.30;;
50769;SDS011;36740;48.698;11.472;2023-08-01T23:42:49;1.83;;;1.30;;
50769;SDS011;36740;48.698;11.472;2023-08-01T23:45:35;1.73;;;1.15;;
50769;SDS011;36740;48.698;11.472;2023-08-01T23:48:20;5.68;;;2.53;;
50769;SDS011;36740;48.698;11.472;2023-08-01T23:51:07;6.45;;;1.75;;
50769;SDS011;36740;48.698;11.472;2023-08-01T23:53:53;1.77;;;1.55;;
50769;SDS011;36740;48.698;11.472;2023-08-01T23:56:39;3.40;;;1.95;;
50769;SDS011;36740;48.698;11.472;2023-08-01T23:59:24;3.17;;;2.65;;
